Time;durP1;ratioP1;P1;durP2;ratioP2;P2;SDS_P1;SDS_P2;PMS_P1;PMS_P2;Temp;Humidity;BMP_temperature;BMP_pressure;BME280_temperature;BME280_humidity;BME280_pressure;Samples;Min_cycle;Max_cycle;Signal;HPM_P1;HPM_P2
2023/06/09 00:01:44;;;;;;;8.77;3.85;;;;;;;21.12;46.78;101344.31;4989975;28;20041;-80
2023/06/09 00:04:12;;;;;;;9.80;3.83;;;;;;;21.07;46.65;101349.19;4986337;28;20292;-80
2023/06/09 00:06:38;;;;;;;7.72;4.05;;;;;;;20.96;47.10;101350.03;4986922;28;20552;-80
2023/06/09 00:09:04;;;;;;;6.45;3.50;;;;;;;20.98;46.91;101347.22;4985103;28;20034;-80
2023/06/09 00:11:29;;;;;;;10.27;4.43;;;;;;;20.96;46.72;101346.50;4971585;28;20359;-80
2023/06/09 00:13:55;;;;;;;8.93;4.07;;;;;;;20.89;47.41;101355.03;4984190;28;20496;-80
2023/06/09 00:16:23;;;;;;;8.70;4.22;;;;;;;20.83;46.72;101352.78;4973475;28;20488;-80
2023/06/09 00:18:50;;;;;;;6.85;4.05;;;;;;;20.81;47.40;101353.88;4986447;28;20048;-80
2023/06/09 00:21:18;;;;;;;9.13;4.47;;;;;;;20.77;47.42;101334.44;4987940;28;20053;-80
2023/06/09 00:23:46;;;;;;;10.20;4.60;;;;;;;20.75;47.37;101344.44;4990125;28;20034;-80
2023/06/09 00:26:12;;;;;;;8.38;4.30;;;;;;;20.71;47.70;101340.28;4988430;28;20574;-80
2023/06/09 00:28:39;;;;;;;12.00;4.50;;;;;;;20.71;47.06;101337.59;4980585;28;20489;-80
2023/06/09 00:31:04;;;;;;;8.45;4.38;;;;;;;20.61;47.66;101344.59;4984013;28;20076;-80
2023/06/09 00:33:29;;;;;;;8.10;4.28;;;;;;;20.54;47.57;101337.97;4980862;28;20409;-80
2023/06/09 00:35:54;;;;;;;6.57;3.90;;;;;;;20.56;47.95;101339.59;4983389;28;20050;-80
2023/06/09 00:38:20;;;;;;;10.60;4.35;;;;;;;20.53;47.78;101333.59;4982529;28;20355;-79
2023/06/09 00:40:45;;;;;;;6.82;3.80;;;;;;;20.56;47.61;101336.03;4990263;28;20042;-79
2023/06/09 00:43:11;;;;;;;11.35;4.85;;;;;;;20.52;48.01;101335.41;4989847;28;20393;-79
2023/06/09 00:45:37;;;;;;;8.07;4.20;;;;;;;20.47;47.86;101336.66;4971104;28;20046;-79
2023/06/09 00:48:03;;;;;;;8.73;4.20;;;;;;;20.21;48.73;101335.91;4982446;28;20448;-79
2023/06/09 00:50:29;;;;;;;5.28;3.85;;;;;;;20.12;48.84;101338.28;4989675;28;20026;-79
2023/06/09 00:52:55;;;;;;;10.27;3.83;;;;;;;20.10;48.75;101337.56;4989961;28;20420;-79
2023/06/09 00:55:22;;;;;;;6.68;4.05;;;;;;;20.13;48.71;101340.00;4990285;28;20088;-79
2023/06/09 00:57:48;;;;;;;9.63;4.25;;;;;;;20.05;48.93;101338.84;4986668;28;20026;-79
2023/06/09 01:00:16;;;;;;;9.20;3.88;;;;;;;19.96;49.28;101336.81;4988804;28;20030;-79
2023/06/09 01:02:42;;;;;;;5.85;4.10;;;;;;;19.95;49.30;101335.09;4987950;28;20041;-79
2023/06/09 01:05:08;;;;;;;8.60;4.30;;;;;;;19.82;50.19;101327.94;4972310;28;20073;-79
2023/06/09 01:07:41;;;;;;;6.88;4.43;;;;;;;19.70;50.46;101331.47;4985381;28;20536;-79
2023/06/09 01:10:06;;;;;;;;;;;;;;;19.85;48.15;101327.69;4987261;28;20361;-79
2023/06/09 01:12:59;;;;;;;12.40;4.53;;;;;;;19.66;49.36;101337.19;4986858;28;20106;-79
2023/06/09 01:15:35;;;;;;;7.75;4.70;;;;;;;19.62;49.96;101328.47;4963193;28;20033;-79
2023/06/09 01:18:04;;;;;;;9.35;4.28;;;;;;;19.57;50.10;101323.41;4985511;28;20560;-79
2023/06/09 01:20:48;;;;;;;11.90;4.32;;;;;;;19.62;49.27;101323.97;4965809;28;20104;-79
2023/06/09 01:23:23;;;;;;;9.98;4.03;;;;;;;19.61;49.72;101322.25;4984246;28;20049;-79
2023/06/09 01:25:52;;;;;;;7.03;4.00;;;;;;;19.59;50.05;101317.94;4984771;28;20037;-79
2023/06/09 01:28:20;;;;;;;9.25;4.47;;;;;;;19.57;49.92;101320.72;4980956;28;20026;-79
2023/06/09 01:30:49;;;;;;;9.25;4.50;;;;;;;19.58;50.18;101330.50;4988328;28;20037;-79
2023/06/09 01:33:22;;;;;;;9.35;4.00;;;;;;;19.42;50.32;101320.94;4988459;28;20105;-79
2023/06/09 01:35:49;;;;;;;7.43;4.30;;;;;;;19.41;49.94;101317.41;4971449;28;20037;-79
2023/06/09 01:38:15;;;;;;;8.13;3.85;;;;;;;19.49;50.03;101311.50;4983303;28;20481;-79
2023/06/09 01:40:42;;;;;;;8.00;4.75;;;;;;;19.53;49.75;101316.53;4971167;28;20031;-79
2023/06/09 01:43:07;;;;;;;8.88;4.47;;;;;;;19.53;49.83;101304.94;4987337;28;20040;-79
2023/06/09 01:45:32;;;;;;;9.63;4.63;;;;;;;19.50;49.89;101316.78;4985474;28;20413;-79
2023/06/09 01:48:01;;;;;;;7.18;4.25;;;;;;;19.48;49.68;101317.81;4979778;28;20054;-79
2023/06/09 01:50:45;;;;;;;11.55;4.60;;;;;;;19.52;49.53;101308.59;4985249;28;20062;-79
2023/06/09 01:53:15;;;;;;;10.98;4.28;;;;;;;19.49;49.93;101312.38;4989147;28;20482;-79
2023/06/09 01:55:54;;;;;;;13.93;4.72;;;;;;;19.42;49.64;101310.22;4982886;28;20069;-79
2023/06/09 01:58:31;;;;;;;7.68;4.28;;;;;;;19.36;49.74;101323.09;4982787;28;20026;-79
2023/06/09 02:00:58;;;;;;;10.32;4.88;;;;;;;19.30;50.28;101317.28;4982668;28;20030;-79
2023/06/09 02:03:26;;;;;;;8.15;4.63;;;;;;;19.21;50.52;101315.22;4986216;28;20560;-79
2023/06/09 02:05:53;;;;;;;9.05;4.68;;;;;;;19.19;50.14;101315.34;4985197;28;20038;-79
2023/06/09 02:08:20;;;;;;;8.30;4.93;;;;;;;19.20;50.38;101314.38;4987915;28;20503;-79
2023/06/09 02:10:45;;;;;;;10.50;5.20;;;;;;;19.19;50.47;101304.63;4988042;28;20091;-79
2023/06/09 02:13:15;;;;;;;7.45;4.95;;;;;;;19.04;50.91;101308.38;4984924;28;20484;-79
2023/06/09 02:15:44;;;;;;;11.93;5.03;;;;;;;18.91;51.19;101302.97;4988989;28;20393;-79
2023/06/09 02:18:11;;;;;;;8.88;4.93;;;;;;;18.83;51.59;101307.97;4967297;28;20608;-79
2023/06/09 02:20:39;;;;;;;10.05;5.32;;;;;;;18.85;51.04;101296.22;4994150;28;20033;-79
2023/06/09 02:23:04;;;;;;;9.63;4.90;;;;;;;18.90;51.25;101293.22;4991480;28;20030;-79
2023/06/09 02:25:32;;;;;;;11.10;5.00;;;;;;;18.74;51.49;101297.88;4986914;28;20041;-79
2023/06/09 02:27:57;;;;;;;9.70;4.80;;;;;;;18.60;51.63;101290.72;4985044;28;20050;-79
2023/06/09 02:30:23;;;;;;;7.15;4.40;;;;;;;18.66;52.04;101293.03;4986055;28;20105;-79
2023/06/09 02:32:48;;;;;;;10.07;4.85;;;;;;;18.72;51.60;101295.31;4973479;28;20031;-79
2023/06/09 02:35:13;;;;;;;12.23;5.28;;;;;;;18.69;51.23;101297.34;4972083;28;20489;-79
2023/06/09 02:37:41;;;;;;;8.27;5.65;;;;;;;18.73;51.93;101296.16;4972461;28;20045;-79
2023/06/09 02:40:08;;;;;;;8.15;4.55;;;;;;;18.54;51.96;101304.53;4984782;28;20327;-79
2023/06/09 02:42:34;;;;;;;11.35;5.15;;;;;;;18.42;52.24;101292.84;4986629;28;20211;-79
2023/06/09 02:44:59;;;;;;;9.65;4.60;;;;;;;18.44;52.26;101290.06;4989660;28;20105;-79
2023/06/09 02:47:25;;;;;;;9.95;5.18;;;;;;;18.47;52.00;101289.84;4971000;28;20066;-79
2023/06/09 02:49:50;;;;;;;8.95;4.97;;;;;;;18.51;52.10;101292.22;4983663;28;20393;-79
2023/06/09 02:52:15;;;;;;;8.50;5.15;;;;;;;18.58;51.77;101295.34;4989594;28;20030;-79
2023/06/09 02:54:40;;;;;;;13.13;5.72;;;;;;;18.64;51.67;101288.72;4988555;28;20026;-79
2023/06/09 02:57:07;;;;;;;9.05;5.18;;;;;;;18.49;52.37;101295.97;4987620;28;20030;-79
2023/06/09 02:59:32;;;;;;;10.10;5.43;;;;;;;18.45;52.51;101287.25;4980275;28;20027;-79
2023/06/09 03:01:57;;;;;;;10.60;4.95;;;;;;;18.46;52.14;101290.78;4985134;28;20500;-79
2023/06/09 03:04:23;;;;;;;11.30;5.45;;;;;;;18.47;52.53;101289.84;4980582;28;20229;-79
2023/06/09 03:06:50;;;;;;;10.15;4.70;;;;;;;18.46;52.24;101288.97;4981154;28;20045;-79
2023/06/09 03:09:15;;;;;;;8.35;4.88;;;;;;;18.21;53.29;101300.44;4972011;28;20030;-79
2023/06/09 03:11:41;;;;;;;11.55;5.30;;;;;;;17.91;53.83;101302.41;4970574;28;20041;-79
2023/06/09 03:14:07;;;;;;;14.02;5.60;;;;;;;17.93;53.81;101296.00;4990253;28;20121;-79
2023/06/09 03:16:32;;;;;;;10.80;5.43;;;;;;;17.97;53.68;101302.03;4989153;28;20485;-79
2023/06/09 03:18:57;;;;;;;11.57;5.25;;;;;;;18.07;53.58;101297.78;4986568;28;20110;-79
2023/06/09 03:21:25;;;;;;;12.38;5.13;;;;;;;18.14;53.50;101296.47;4986415;28;20477;-79
2023/06/09 03:23:51;;;;;;;12.38;5.28;;;;;;;18.18;53.05;101300.63;4981252;28;20054;-79
2023/06/09 03:26:17;;;;;;;10.65;4.88;;;;;;;18.19;53.33;101298.84;4988791;28;20478;-79
2023/06/09 03:28:43;;;;;;;9.18;5.28;;;;;;;18.20;53.22;101303.22;4982384;28;20037;-79
2023/06/09 03:31:08;;;;;;;10.00;5.90;;;;;;;18.09;54.05;101303.88;4987757;28;20030;-79
2023/06/09 03:33:34;;;;;;;7.63;4.75;;;;;;;18.10;53.43;101305.63;4990075;28;20018;-79
2023/06/09 03:35:59;;;;;;;10.80;5.22;;;;;;;18.06;53.59;101296.94;4990033;28;20108;-79
2023/06/09 03:38:24;;;;;;;9.52;4.95;;;;;;;18.12;54.03;101305.53;4982350;28;20189;-79
2023/06/09 03:40:50;;;;;;;12.73;5.43;;;;;;;17.95;54.61;101315.50;4987956;28;20032;-79
2023/06/09 03:43:15;;;;;;;10.43;4.93;;;;;;;17.63;54.82;101309.47;4985492;28;20018;-79
2023/06/09 03:45:40;;;;;;;10.50;5.43;;;;;;;17.37;55.96;101320.91;4972050;28;20401;-79
2023/06/09 03:48:06;;;;;;;11.70;5.20;;;;;;;17.25;56.75;101315.34;4985951;28;20053;-79
2023/06/09 03:50:32;;;;;;;8.65;5.15;;;;;;;17.24;56.90;101336.81;4968475;28;20030;-79
2023/06/09 03:52:57;;;;;;;9.75;5.40;;;;;;;17.27;56.59;101329.47;4986962;28;20021;-79
2023/06/09 03:55:24;;;;;;;11.50;5.22;;;;;;;17.42;55.94;101314.31;4964479;28;20096;-79
2023/06/09 03:57:50;;;;;;;10.52;5.05;;;;;;;17.47;56.46;101320.22;4970209;28;20039;-79
2023/06/09 04:00:16;;;;;;;12.40;5.20;;;;;;;17.57;55.47;101321.38;4965736;28;20030;-79
2023/06/09 04:02:42;;;;;;;12.70;5.90;;;;;;;17.69;55.41;101309.06;4967480;28;20031;-79
2023/06/09 04:05:07;;;;;;;11.18;5.45;;;;;;;17.72;55.28;101313.34;4982802;28;20362;-79
2023/06/09 04:07:32;;;;;;;11.30;5.55;;;;;;;17.62;56.09;101321.09;4989051;28;20022;-79
2023/06/09 04:09:58;;;;;;;9.15;5.50;;;;;;;17.67;55.30;101328.84;4989091;28;20393;-79
2023/06/09 04:12:23;;;;;;;11.35;5.30;;;;;;;17.72;55.21;101324.94;4985136;28;20040;-79
2023/06/09 04:14:48;;;;;;;11.55;5.38;;;;;;;17.86;54.98;101321.44;4987436;28;20038;-79
2023/06/09 04:17:14;;;;;;;15.15;5.45;;;;;;;17.91;54.24;101322.00;4986373;28;20026;-79
2023/06/09 04:19:39;;;;;;;10.82;5.47;;;;;;;17.93;54.82;101324.56;4981779;28;20041;-79
2023/06/09 04:22:05;;;;;;;10.27;5.55;;;;;;;17.97;54.34;101336.81;4989587;28;20026;-79
2023/06/09 04:24:31;;;;;;;8.88;5.43;;;;;;;18.02;54.80;101329.34;4986751;28;20612;-79
2023/06/09 04:26:57;;;;;;;13.98;6.30;;;;;;;17.94;54.92;101331.63;4982210;28;20030;-79
2023/06/09 04:29:23;;;;;;;12.25;5.30;;;;;;;17.98;54.88;101336.69;4983684;28;20041;-79
2023/06/09 04:31:53;;;;;;;9.98;5.40;;;;;;;17.99;54.78;101335.72;4970503;28;20027;-79
2023/06/09 04:34:18;;;;;;;14.05;6.25;;;;;;;18.03;54.78;101333.72;4989162;28;20457;-79
2023/06/09 04:36:45;;;;;;;16.52;6.10;;;;;;;18.11;54.49;101342.13;4985618;28;20065;-79
2023/06/09 04:39:12;;;;;;;10.48;5.30;;;;;;;18.16;54.91;101340.03;4981581;28;20041;-79
2023/06/09 04:41:37;;;;;;;15.02;5.68;;;;;;;18.18;54.46;101343.44;4985780;28;20030;-79
2023/06/09 04:44:06;;;;;;;14.07;5.97;;;;;;;18.20;55.17;101338.00;4982304;28;20041;-79
2023/06/09 04:46:37;;;;;;;13.65;5.93;;;;;;;18.21;55.11;101340.59;4983304;28;20037;-79
2023/06/09 04:49:08;;;;;;;12.25;5.93;;;;;;;18.25;54.80;101342.09;4983776;28;20032;-79
2023/06/09 04:51:46;;;;;;;11.80;6.25;;;;;;;18.17;55.45;101348.91;4967729;28;20029;-79
2023/06/09 04:54:18;;;;;;;11.30;6.03;;;;;;;18.26;55.22;101330.44;4965091;28;20052;-79
2023/06/09 04:56:49;;;;;;;13.85;6.65;;;;;;;18.33;55.61;101342.47;4967159;28;20034;-79
2023/06/09 04:59:14;;;;;;;15.35;6.55;;;;;;;18.35;55.48;101342.38;4964364;28;20031;-79
2023/06/09 05:01:40;;;;;;;10.80;5.75;;;;;;;18.41;55.00;101341.09;4984420;28;20452;-79
2023/06/09 05:04:08;;;;;;;13.30;6.18;;;;;;;18.48;54.55;101339.75;4980587;28;20043;-79
2023/06/09 05:06:33;;;;;;;11.25;6.30;;;;;;;18.46;54.32;101341.66;4982241;28;20520;-79
2023/06/09 05:08:59;;;;;;;15.55;6.38;;;;;;;18.50;53.86;101337.84;4985753;28;20042;-79
2023/06/09 05:11:25;;;;;;;8.38;5.47;;;;;;;18.54;53.94;101339.34;4987783;28;20029;-79
2023/06/09 05:13:50;;;;;;;12.70;5.47;;;;;;;18.55;54.27;101335.72;4985766;28;20038;-79
2023/06/09 05:16:15;;;;;;;14.68;6.15;;;;;;;18.58;54.26;101346.22;4986489;28;20033;-79
2023/06/09 05:18:42;;;;;;;11.77;5.82;;;;;;;18.68;54.02;101341.97;4987277;28;20030;-79
2023/06/09 05:21:07;;;;;;;16.52;6.90;;;;;;;18.70;54.01;101347.25;4989686;28;20548;-79
2023/06/09 05:23:33;;;;;;;10.68;5.78;;;;;;;18.79;53.98;101346.66;4983238;28;20113;-79
2023/06/09 05:25:59;;;;;;;13.15;6.22;;;;;;;18.88;54.13;101347.84;4985410;28;20044;-79
2023/06/09 05:28:25;;;;;;;11.07;5.82;;;;;;;18.87;54.25;101347.00;4966511;28;20486;-79
2023/06/09 05:30:51;;;;;;;15.00;7.25;;;;;;;18.92;53.98;101339.50;4985933;28;20030;-79
2023/06/09 05:33:16;;;;;;;14.05;6.80;;;;;;;18.96;54.74;101350.91;4969394;28;20020;-79
2023/06/09 05:35:41;;;;;;;13.70;7.10;;;;;;;19.05;54.78;101352.94;4971235;28;20042;-79
2023/06/09 05:38:07;;;;;;;17.27;7.93;;;;;;;19.07;54.53;101343.88;4987448;28;20030;-79
2023/06/09 05:40:33;;;;;;;13.13;6.28;;;;;;;19.14;54.42;101355.00;4984189;28;20029;-79
2023/06/09 05:42:58;;;;;;;14.35;6.78;;;;;;;19.20;54.25;101351.06;4982627;28;20549;-79
2023/06/09 05:45:23;;;;;;;11.00;6.28;;;;;;;19.22;55.64;101355.34;4979817;28;20030;-79
2023/06/09 05:47:50;;;;;;;13.15;6.80;;;;;;;19.23;55.27;101349.03;4986567;28;20066;-79
2023/06/09 05:50:16;;;;;;;15.52;7.30;;;;;;;19.30;54.96;101355.66;4979672;28;20053;-79
2023/06/09 05:52:41;;;;;;;13.15;6.88;;;;;;;19.38;54.49;101345.28;4988853;28;20061;-79
2023/06/09 05:55:07;;;;;;;13.55;7.00;;;;;;;19.48;54.60;101348.19;4988117;28;20076;-79
2023/06/09 05:57:32;;;;;;;13.65;7.18;;;;;;;19.52;54.89;101351.50;4974964;28;20037;-79
2023/06/09 05:59:58;;;;;;;14.93;7.60;;;;;;;19.57;55.03;101349.38;4988717;28;20113;-79
2023/06/09 06:02:23;;;;;;;18.55;7.88;;;;;;;19.62;54.96;101349.94;4973620;28;20030;-79
2023/06/09 06:04:49;;;;;;;13.80;7.57;;;;;;;19.70;54.52;101350.25;4992552;28;20049;-79
2023/06/09 06:07:15;;;;;;;14.88;7.90;;;;;;;19.70;55.02;101355.63;4992919;28;20116;-79
2023/06/09 06:09:40;;;;;;;12.65;6.95;;;;;;;19.78;54.49;101353.28;4989945;28;20465;-79
2023/06/09 06:12:06;;;;;;;14.07;7.15;;;;;;;19.84;54.62;101343.91;4985306;28;20029;-79
2023/06/09 06:14:31;;;;;;;13.02;7.30;;;;;;;19.94;55.07;101339.63;4986526;28;20106;-79
2023/06/09 06:16:56;;;;;;;16.90;8.55;;;;;;;20.07;55.45;101342.28;4972283;28;20022;-79
2023/06/09 06:19:22;;;;;;;16.40;7.80;;;;;;;20.18;54.94;101342.34;4990296;28;20076;-79
2023/06/09 06:21:48;;;;;;;11.93;7.45;;;;;;;20.36;54.23;101343.69;4988847;28;20105;-79
2023/06/09 06:24:13;;;;;;;17.10;8.20;;;;;;;20.52;54.44;101350.69;4984953;28;20382;-79
2023/06/09 06:26:39;;;;;;;16.65;7.45;;;;;;;20.72;53.36;101346.50;4985005;28;20034;-79
2023/06/09 06:29:04;;;;;;;16.63;8.27;;;;;;;20.83;53.46;101350.09;4987816;28;20019;-79
2023/06/09 06:31:30;;;;;;;15.23;7.47;;;;;;;21.05;52.85;101348.47;4984766;28;20022;-79
2023/06/09 06:33:56;;;;;;;16.05;7.88;;;;;;;21.15;52.73;101344.97;4985805;28;20023;-79
2023/06/09 06:36:22;;;;;;;16.13;8.73;;;;;;;21.26;52.91;101346.81;4990072;28;20370;-79
2023/06/09 06:38:47;;;;;;;13.80;8.43;;;;;;;21.25;53.19;101355.00;4986504;28;20062;-79
2023/06/09 06:41:13;;;;;;;15.60;8.25;;;;;;;21.25;53.40;101339.72;4983768;28;20050;-79
2023/06/09 06:43:38;;;;;;;15.93;8.98;;;;;;;21.57;52.18;101344.47;4990566;28;20030;-79
2023/06/09 06:46:05;;;;;;;16.50;9.10;;;;;;;21.91;51.53;101342.66;4987739;28;20034;-79
2023/06/09 06:48:30;;;;;;;13.38;8.40;;;;;;;22.05;51.40;101341.53;4988112;28;20026;-79
2023/06/09 06:50:55;;;;;;;15.93;8.98;;;;;;;22.19;50.91;101346.69;4985557;28;20035;-79
2023/06/09 06:53:21;;;;;;;17.20;9.70;;;;;;;22.18;50.51;101338.75;4986159;28;20389;-79
2023/06/09 06:55:46;;;;;;;17.77;8.93;;;;;;;22.11;51.68;101344.66;4979681;28;20556;-79
2023/06/09 06:58:11;;;;;;;15.30;9.35;;;;;;;22.19;52.65;101335.06;4990606;28;20026;-79
2023/06/09 07:00:37;;;;;;;13.38;8.90;;;;;;;22.50;51.40;101341.50;4968322;28;20026;-78
2023/06/09 07:03:02;;;;;;;13.40;8.70;;;;;;;22.87;50.83;101347.41;4988042;28;20118;-78
2023/06/09 07:05:27;;;;;;;16.35;8.82;;;;;;;23.00;50.52;101342.72;4987388;28;20046;-79
2023/06/09 07:07:53;;;;;;;16.17;9.35;;;;;;;22.86;49.88;101345.69;4969796;28;20042;-79
2023/06/09 07:10:18;;;;;;;15.27;8.82;;;;;;;23.16;50.00;101347.66;4982673;28;20382;-79
2023/06/09 07:12:44;;;;;;;15.90;9.07;;;;;;;23.34;50.62;101350.63;4983585;28;21046;-79
2023/06/09 07:15:09;;;;;;;21.40;9.23;;;;;;;23.18;50.05;101345.69;4983074;28;20073;-79
2023/06/09 07:17:35;;;;;;;11.50;8.20;;;;;;;23.31;51.69;101346.34;4972159;28;20033;-79
2023/06/09 07:20:00;;;;;;;15.52;9.10;;;;;;;23.51;49.84;101344.63;4990723;28;20038;-78
2023/06/09 07:22:26;;;;;;;16.02;8.93;;;;;;;23.86;48.20;101348.81;4988243;28;20027;-78
2023/06/09 07:24:51;;;;;;;18.75;10.35;;;;;;;23.80;48.37;101349.34;4962280;28;20023;-79
2023/06/09 07:27:17;;;;;;;17.23;9.13;;;;;;;23.75;49.27;101355.16;4970163;28;20025;-79
2023/06/09 07:29:43;;;;;;;14.85;8.75;;;;;;;24.29;50.05;101348.53;4983396;28;20054;-79
2023/06/09 07:32:09;;;;;;;16.13;8.52;;;;;;;24.86;46.17;101357.78;4983589;28;20030;-79
2023/06/09 07:34:35;;;;;;;19.10;9.77;;;;;;;25.18;44.73;101351.22;4983659;28;20030;-79
2023/06/09 07:37:03;;;;;;;14.75;8.63;;;;;;;25.74;44.39;101350.44;4968355;28;20049;-79
2023/06/09 07:39:29;;;;;;;18.00;9.50;;;;;;;26.43;42.86;101349.97;4991155;28;20034;-79
2023/06/09 07:41:54;;;;;;;15.88;9.02;;;;;;;27.05;41.63;101349.25;4984038;28;20414;-79
2023/06/09 07:44:20;;;;;;;14.30;9.05;;;;;;;27.37;39.78;101354.97;4985680;28;20457;-79
2023/06/09 07:46:45;;;;;;;15.27;8.73;;;;;;;27.88;39.13;101347.81;4969364;28;20494;-79
2023/06/09 07:49:11;;;;;;;15.48;8.75;;;;;;;28.16;38.87;101353.91;4973339;28;20042;-79
2023/06/09 07:51:37;;;;;;;17.70;9.48;;;;;;;28.37;38.19;101341.78;4981667;28;20109;-79
2023/06/09 07:54:05;;;;;;;13.82;9.07;;;;;;;28.56;38.01;101338.75;4978916;28;20027;-79
2023/06/09 07:56:30;;;;;;;16.25;8.50;;;;;;;28.88;37.75;101335.25;4990910;28;20030;-79
2023/06/09 07:58:57;;;;;;;18.55;9.05;;;;;;;28.88;36.72;101335.25;4984486;28;20034;-80
2023/06/09 08:01:23;;;;;;;14.10;8.07;;;;;;;29.31;36.64;101338.66;4983030;28;20109;-80
2023/06/09 08:03:48;;;;;;;13.15;9.50;;;;;;;29.83;34.52;101340.09;4985433;28;20121;-80
2023/06/09 08:06:14;;;;;;;14.07;8.83;;;;;;;29.83;35.20;101334.66;4986645;28;20409;-80
2023/06/09 08:08:39;;;;;;;15.65;9.27;;;;;;;30.03;35.03;101333.25;4987582;28;20391;-80
2023/06/09 08:11:04;;;;;;;14.90;8.57;;;;;;;30.18;34.50;101330.63;4982859;28;20549;-80
2023/06/09 08:13:30;;;;;;;12.05;7.80;;;;;;;30.74;33.57;101336.81;4986931;28;20064;-80
2023/06/09 08:15:55;;;;;;;14.43;8.65;;;;;;;30.88;32.82;101336.03;4986607;28;20022;-80
2023/06/09 08:18:21;;;;;;;13.20;8.82;;;;;;;30.95;33.06;101336.97;4990050;28;20547;-80
2023/06/09 08:20:46;;;;;;;15.18;9.70;;;;;;;30.93;33.41;101332.75;4989275;28;20042;-79
2023/06/09 08:23:11;;;;;;;15.07;8.27;;;;;;;31.27;33.08;101336.88;4970431;28;20473;-79
2023/06/09 08:25:37;;;;;;;13.07;7.55;;;;;;;31.96;33.38;101332.94;4970394;28;20037;-80
2023/06/09 08:28:02;;;;;;;9.98;8.63;;;;;;;32.06;31.82;101331.78;4972669;28;20057;-79
2023/06/09 08:30:28;;;;;;;13.38;8.35;;;;;;;32.26;30.64;101324.66;4985689;28;20030;-79
2023/06/09 08:32:53;;;;;;;11.45;7.55;;;;;;;32.68;31.21;101321.16;4989833;28;20026;-79
2023/06/09 08:35:18;;;;;;;13.70;8.35;;;;;;;33.04;31.01;101328.50;4983964;28;20169;-80
2023/06/09 08:37:44;;;;;;;16.17;9.10;;;;;;;32.72;30.63;101329.84;4983181;28;20121;-82
2023/06/09 08:40:09;;;;;;;13.55;7.88;;;;;;;32.38;31.47;101322.31;4983204;28;20038;-81
2023/06/09 08:42:36;;;;;;;11.40;8.05;;;;;;;32.47;31.14;101322.00;4985799;28;20030;-80
2023/06/09 08:45:04;;;;;;;10.35;7.97;;;;;;;32.46;31.17;101335.91;4982413;28;20026;-80
2023/06/09 08:47:31;;;;;;;12.70;8.57;;;;;;;32.81;30.93;101330.56;4989131;28;20500;-80
2023/06/09 08:49:59;;;;;;;12.60;8.13;;;;;;;33.10;30.55;101322.22;4967562;28;20030;-82
2023/06/09 08:52:24;;;;;;;14.40;9.10;;;;;;;32.76;30.08;101320.19;4971102;28;20049;-82
2023/06/09 08:54:51;;;;;;;25.40;8.98;;;;;;;32.68;31.07;101323.91;4967101;28;20022;-82
2023/06/09 08:57:21;;;;;;;18.05;7.88;;;;;;;32.96;30.00;101323.97;4987046;28;20375;-82
2023/06/09 08:59:47;;;;;;;12.18;8.55;;;;;;;32.92;30.01;101328.19;4986369;28;20456;-82
2023/06/09 09:02:13;;;;;;;11.00;8.20;;;;;;;32.94;29.25;101325.25;4980678;28;20061;-82
2023/06/09 09:04:38;;;;;;;13.00;8.05;;;;;;;32.30;31.34;101320.50;4982311;28;20042;-82
2023/06/09 09:07:08;;;;;;;12.27;8.13;;;;;;;32.34;31.81;101310.88;4981005;28;20161;-82
2023/06/09 09:09:34;;;;;;;12.93;8.52;;;;;;;32.55;29.86;101310.09;4981343;28;20062;-82
2023/06/09 09:12:01;;;;;;;11.02;8.27;;;;;;;32.45;31.05;101307.66;4989885;28;20057;-82
2023/06/09 09:14:26;;;;;;;11.65;8.68;;;;;;;32.12;30.28;101323.66;4987430;28;20837;-82
2023/06/09 09:16:52;;;;;;;11.15;8.48;;;;;;;31.21;33.27;101317.47;4983528;28;20105;-82
2023/06/09 09:19:27;;;;;;;11.18;7.93;;;;;;;31.32;34.49;101313.44;4985109;28;20022;-82
2023/06/09 09:21:56;;;;;;;11.80;7.85;;;;;;;31.48;33.07;101317.91;4985773;28;20057;-82
2023/06/09 09:24:29;;;;;;;11.38;8.20;;;;;;;31.65;31.57;101307.63;4981208;28;20035;-82
2023/06/09 09:26:55;;;;;;;12.77;9.02;;;;;;;31.23;32.42;101311.81;4981874;28;20038;-82
2023/06/09 09:29:21;;;;;;;15.52;8.27;;;;;;;31.27;32.25;101312.28;4969620;28;20482;-82
2023/06/09 09:31:55;;;;;;;11.07;6.90;;;;;;;31.84;31.52;101296.16;4982586;28;20038;-82
2023/06/09 09:34:20;;;;;;;9.80;7.63;;;;;;;32.12;31.75;101290.81;4990031;28;20077;-81
2023/06/09 09:36:45;;;;;;;11.38;8.02;;;;;;;32.38;30.80;101295.78;4984455;28;20026;-81
2023/06/09 09:39:15;;;;;;;11.05;8.25;;;;;;;32.31;30.93;101288.50;4978606;28;20386;-81
2023/06/09 09:42:00;;;;;;;12.15;8.02;;;;;;;32.42;31.92;101294.38;4966142;28;20054;-82
2023/06/09 09:44:35;;;;;;;11.27;7.82;;;;;;;32.56;32.84;101291.78;4988196;28;20054;-82
2023/06/09 09:47:03;;;;;;;9.98;8.75;;;;;;;32.62;31.71;101297.31;4985262;28;20504;-82
2023/06/09 09:49:29;;;;;;;8.77;7.88;;;;;;;32.62;30.67;101290.97;4984505;28;20548;-82
2023/06/09 09:51:57;;;;;;;8.93;6.47;;;;;;;32.81;32.92;101292.22;4966337;28;20022;-82
2023/06/09 09:54:23;;;;;;;12.13;8.38;;;;;;;32.67;30.70;101294.81;4984599;28;20541;-82
2023/06/09 09:56:50;;;;;;;8.90;7.05;;;;;;;33.00;29.47;101292.41;4985174;28;20034;-82
2023/06/09 09:59:15;;;;;;;10.40;7.90;;;;;;;33.21;29.14;101293.44;4980714;28;20038;-82
2023/06/09 10:01:41;;;;;;;7.88;6.57;;;;;;;33.30;29.66;101283.16;4984885;28;20498;-82
2023/06/09 10:04:07;;;;;;;10.82;6.93;;;;;;;34.08;29.39;101281.94;4987048;28;20027;-83
2023/06/09 10:06:34;;;;;;;8.52;7.10;;;;;;;33.95;26.65;101280.00;4980222;28;20047;-82
2023/06/09 10:09:00;;;;;;;11.10;7.05;;;;;;;33.85;27.80;101278.63;4976040;28;20088;-82
2023/06/09 10:11:31;;;;;;;10.82;7.95;;;;;;;33.92;28.97;101282.28;4972293;28;20031;-83
2023/06/09 10:13:59;;;;;;;8.43;6.97;;;;;;;33.98;28.66;101276.84;4986385;28;20660;-83
2023/06/09 10:16:25;;;;;;;10.45;7.22;;;;;;;34.36;27.13;101283.72;4982820;28;20022;-83
2023/06/09 10:18:50;;;;;;;9.27;7.47;;;;;;;33.92;28.56;101282.28;4981349;28;20034;-82
2023/06/09 10:21:16;;;;;;;8.73;7.82;;;;;;;34.30;27.42;101274.41;4986271;28;20034;-82
2023/06/09 10:23:42;;;;;;;10.55;8.43;;;;;;;34.71;27.21;101278.94;4982808;28;20073;-82
2023/06/09 10:26:09;;;;;;;13.38;9.02;;;;;;;35.18;27.39;101277.91;4985799;28;20040;-82
2023/06/09 10:28:34;;;;;;;10.30;9.20;;;;;;;35.20;26.61;101277.69;4985753;28;20030;-82
2023/06/09 10:31:01;;;;;;;11.20;7.83;;;;;;;35.54;26.51;101279.38;4981379;28;20097;-82
2023/06/09 10:33:33;;;;;;;9.65;7.53;;;;;;;35.68;26.22;101270.00;4977558;28;20321;-83
2023/06/09 10:36:02;;;;;;;12.63;9.68;;;;;;;35.19;25.83;101274.09;4983252;28;20312;-82
2023/06/09 10:38:28;;;;;;;12.02;8.80;;;;;;;34.93;26.91;101263.97;4963347;28;20362;-82
2023/06/09 10:41:05;;;;;;;10.55;8.10;;;;;;;34.89;27.14;101265.44;4981065;28;20033;-81
2023/06/09 10:43:51;;;;;;;8.48;6.93;;;;;;;35.19;27.62;101265.00;4984119;28;20026;-81
2023/06/09 10:46:17;;;;;;;8.95;6.78;;;;;;;34.68;26.22;101265.63;4986556;28;20069;-81
2023/06/09 10:48:49;;;;;;;8.73;7.30;;;;;;;34.67;27.08;101263.94;4986362;28;20058;-81
2023/06/09 10:51:38;;;;;;;13.30;8.30;;;;;;;34.50;27.71;101247.00;4988794;28;20102;-81
2023/06/09 10:54:12;;;;;;;8.25;7.20;;;;;;;35.08;26.64;101252.75;4971955;28;20034;-81
2023/06/09 10:56:47;;;;;;;8.88;6.93;;;;;;;35.70;26.88;101245.84;4985601;28;20030;-81
2023/06/09 10:59:31;;;;;;;7.25;6.22;;;;;;;35.88;25.77;101244.31;4985464;28;20041;-81
2023/06/09 11:01:59;;;;;;;8.88;7.20;;;;;;;35.78;24.82;101242.03;4987317;28;20422;-81
2023/06/09 11:04:52;;;;;;;8.95;5.90;;;;;;;35.98;24.87;101250.22;4986787;28;20045;-81
2023/06/09 11:07:27;;;;;;;13.32;7.13;;;;;;;35.29;25.77;101246.16;4983366;28;20617;-81
2023/06/09 11:09:53;;;;;;;7.82;6.88;;;;;;;34.94;26.62;101249.16;4982677;28;20117;-82
2023/06/09 11:12:24;;;;;;;8.25;6.30;;;;;;;35.06;26.74;101248.53;4987141;28;20485;-81
2023/06/09 11:14:53;;;;;;;8.30;6.03;;;;;;;35.55;25.32;101238.94;4990007;28;20723;-82
2023/06/09 11:17:25;;;;;;;11.65;6.32;;;;;;;35.66;25.30;101247.34;4985242;28;20076;-82
2023/06/09 11:20:14;;;;;;;8.13;6.50;;;;;;;35.67;24.69;101242.69;4985294;28;20093;-81